Lyndonville, VT

1:35 PM EDT on July 28, 2016 (GMT -0400)
Wheelock | | Change Station

Elev 1207 ft 44.56 °N, 72.09 °W | Updated 4 minutes ago

Clear
Clear
78.2 °F
Feels Like 80 °F
N
1.0
Wind Variable Wind from West
Gusts 1.0 mph

Today
High -- | Low -- °F
--% Chance of Precip.
Yesterday
High -- | Low -- °F
Precip. -- in
Pressure 29.94 in
Visibility 10.0 miles
Clouds Clear
Heat Index 80 °F
Dew Point 67 °F
Humidity 69%
Rainfall 0.00 in
Snow Depth Not available.
5:30 AM 8:17 PM
Waning Crescent, 30% visible
METAR KCDA 281715Z AUTO 26005KT 10SM CLR 25/19 A2994 RMK AO2 T02520186
Pressure 29.94 in
Visibility 10.0 miles
Clouds Clear
Heat Index 80 °F
Dew Point 67 °F
Humidity 69%
Rainfall 0.00 in
Snow Depth Not available.
5:30 AM 8:17 PM
Waning Crescent, 30% visible
METAR KCDA 281715Z AUTO 26005KT 10SM CLR 25/19 A2994 RMK AO2 T02520186

10-Day Weather Forecast

Almanac

Astronomy

Jul. 28, 2016 Rise Set
Actual Time
Civil Twilight
Nautical Twilight
Astronomical Twilight
Moon
Length of Visible Light
Length of Day
Tomorrow will be .
, % of the Moon is Illuminated

Today's Extremes

State Highs State Lows

Community

WunderPhotos

Upload Photos

1,928,163 photos uploaded!

WunderBlog® & News

Nearby

Air Quality

  Air Quality AQ Index Pollutant
Not available.

Snow Depth

Station Depth Elevation

Earthquake Activity

City Distance Mag. Time & Date
Minimum magnitude displayed is 2.5.

Coastal Water Temperatures

Place Temperature

Stations

Nearby Weather Stations

Station Location Temp. Windchill Dew Point Humidity Wind Precip. Elev Updated Type
                   

Watches & Warnings

There are currently no watches in effect.